createdAt,value
2023-06-07T00:01:44.066Z,19.62
2023-06-07T00:04:13.161Z,19.61
2023-06-07T00:06:43.043Z,19.58
2023-06-07T00:09:10.665Z,19.54
2023-06-07T00:11:38.146Z,19.50
2023-06-07T00:14:08.184Z,19.47
2023-06-07T00:16:35.172Z,19.43
2023-06-07T00:19:03.017Z,19.39
2023-06-07T00:21:31.386Z,19.37
2023-06-07T00:23:58.813Z,19.32
2023-06-07T00:26:27.822Z,19.30
2023-06-07T00:28:54.718Z,19.29
2023-06-07T00:31:24.514Z,19.24
2023-06-07T00:33:52.118Z,19.24
2023-06-07T00:36:19.168Z,19.26
2023-06-07T00:38:46.207Z,19.24
2023-06-07T00:41:13.094Z,19.23
2023-06-07T00:43:40.000Z,19.24
2023-06-07T00:46:07.713Z,19.26
2023-06-07T00:48:34.769Z,19.32
2023-06-07T00:51:02.058Z,19.33
2023-06-07T00:53:30.583Z,19.31
2023-06-07T00:55:58.038Z,19.29
2023-06-07T00:58:26.846Z,19.31
2023-06-07T01:00:56.007Z,19.35
2023-06-07T01:03:23.406Z,19.40
2023-06-07T01:05:51.426Z,19.39
2023-06-07T01:08:20.063Z,19.36
2023-06-07T01:10:48.221Z,19.30
2023-06-07T01:13:16.205Z,19.28
2023-06-07T01:15:44.276Z,19.29
2023-06-07T01:18:11.562Z,19.31
2023-06-07T01:20:40.710Z,19.33
2023-06-07T01:23:12.441Z,19.36
2023-06-07T01:25:39.482Z,19.38
2023-06-07T01:28:07.069Z,19.31
2023-06-07T01:30:34.649Z,19.34
2023-06-07T01:33:05.006Z,19.27
2023-06-07T01:35:33.513Z,19.26
2023-06-07T01:38:01.450Z,19.27
2023-06-07T01:40:30.685Z,19.28
2023-06-07T01:42:57.943Z,19.25
2023-06-07T01:45:25.068Z,19.23
2023-06-07T01:47:52.039Z,19.22
2023-06-07T01:50:23.494Z,19.20
2023-06-07T01:52:50.490Z,19.24
2023-06-07T01:55:18.517Z,19.23
2023-06-07T01:58:03.917Z,19.11
2023-06-07T02:00:48.388Z,19.16
2023-06-07T02:03:30.182Z,19.09
2023-06-07T02:06:03.664Z,19.11
2023-06-07T02:08:40.185Z,19.08
2023-06-07T02:11:08.779Z,19.14
2023-06-07T02:13:40.007Z,19.15
2023-06-07T02:16:07.533Z,19.21
2023-06-07T02:18:41.564Z,19.21
2023-06-07T02:21:12.145Z,19.16
2023-06-07T02:23:41.514Z,19.17
2023-06-07T02:26:09.477Z,19.13
2023-06-07T02:28:36.488Z,19.11
2023-06-07T02:31:04.409Z,19.11
2023-06-07T02:33:31.361Z,19.09
2023-06-07T02:35:58.166Z,19.09
2023-06-07T02:38:25.073Z,19.04
2023-06-07T02:40:51.954Z,19.03
2023-06-07T02:43:18.827Z,19.05
2023-06-07T02:45:45.790Z,19.04
2023-06-07T02:48:14.023Z,19.01
2023-06-07T02:50:41.111Z,18.97
2023-06-07T02:53:08.600Z,18.92
2023-06-07T02:55:35.951Z,18.90
2023-06-07T02:58:04.557Z,18.88
2023-06-07T03:00:34.409Z,18.90
2023-06-07T03:03:07.667Z,18.90
2023-06-07T03:05:38.731Z,18.88
2023-06-07T03:08:11.882Z,18.91
2023-06-07T03:10:41.532Z,18.92
2023-06-07T03:13:09.991Z,18.93
2023-06-07T03:15:38.528Z,18.94
2023-06-07T03:18:05.972Z,18.96
2023-06-07T03:20:36.121Z,18.99
2023-06-07T03:23:09.433Z,19.00
2023-06-07T03:25:37.488Z,19.02
2023-06-07T03:28:06.384Z,19.05
2023-06-07T03:30:39.664Z,19.10
2023-06-07T03:33:06.921Z,19.11
2023-06-07T03:35:36.156Z,19.12
2023-06-07T03:38:05.213Z,19.15
2023-06-07T03:40:32.635Z,19.16
2023-06-07T03:43:01.244Z,19.22
2023-06-07T03:45:28.902Z,19.29
2023-06-07T03:48:02.314Z,19.35
2023-06-07T03:50:30.870Z,19.37
2023-06-07T03:52:57.953Z,19.39
2023-06-07T03:55:25.257Z,19.42
2023-06-07T03:57:52.789Z,19.41
2023-06-07T04:00:20.086Z,19.41
2023-06-07T04:02:56.817Z,19.45
2023-06-07T04:05:25.774Z,19.45
2023-06-07T04:07:54.293Z,19.47
2023-06-07T04:10:21.422Z,19.44
2023-06-07T04:12:48.288Z,19.43
2023-06-07T04:15:16.584Z,19.42
2023-06-07T04:17:44.311Z,19.43
2023-06-07T04:20:15.506Z,19.43
2023-06-07T04:22:44.078Z,19.45
2023-06-07T04:25:11.825Z,19.45
2023-06-07T04:27:39.684Z,19.41
2023-06-07T04:30:10.616Z,19.44
2023-06-07T04:32:40.680Z,19.45
2023-06-07T04:35:11.489Z,19.37
2023-06-07T04:37:40.978Z,19.37
2023-06-07T04:40:11.132Z,19.39
2023-06-07T04:42:41.602Z,19.45
2023-06-07T04:45:08.919Z,19.50
2023-06-07T04:47:36.985Z,19.57
2023-06-07T04:50:11.394Z,19.62
2023-06-07T04:52:40.047Z,19.69
2023-06-07T04:55:07.583Z,19.70
2023-06-07T04:57:34.623Z,19.70
2023-06-07T05:00:13.053Z,19.73
2023-06-07T05:02:44.855Z,19.68
2023-06-07T05:05:14.800Z,19.71
2023-06-07T05:07:45.790Z,19.69
2023-06-07T05:10:13.020Z,19.68
2023-06-07T05:12:40.535Z,19.70
2023-06-07T05:15:10.227Z,19.76
2023-06-07T05:17:41.962Z,19.82
2023-06-07T05:20:13.344Z,19.83
2023-06-07T05:22:41.061Z,19.82
2023-06-07T05:25:10.430Z,19.84
2023-06-07T05:27:38.454Z,19.91
2023-06-07T05:30:07.760Z,20.04
2023-06-07T05:32:37.725Z,20.09
2023-06-07T05:35:05.348Z,20.11
2023-06-07T05:37:32.939Z,20.15
2023-06-07T05:40:00.937Z,20.23
2023-06-07T05:42:28.100Z,20.31
2023-06-07T05:44:56.513Z,20.32
2023-06-07T05:47:26.784Z,20.32
2023-06-07T05:49:54.869Z,20.36
2023-06-07T05:52:21.808Z,20.39
2023-06-07T05:54:55.343Z,20.39
2023-06-07T05:57:22.839Z,20.45
2023-06-07T05:59:49.724Z,20.49
2023-06-07T06:02:18.020Z,20.44
2023-06-07T06:04:45.565Z,20.37
2023-06-07T06:07:13.884Z,20.35
2023-06-07T06:09:42.466Z,20.31
2023-06-07T06:12:10.348Z,20.40
2023-06-07T06:14:39.709Z,20.64
2023-06-07T06:17:07.388Z,20.81
2023-06-07T06:19:34.390Z,20.93
2023-06-07T06:22:01.291Z,21.03
2023-06-07T06:24:28.102Z,21.17
2023-06-07T06:26:54.953Z,21.35
2023-06-07T06:29:22.870Z,21.52
2023-06-07T06:31:49.836Z,21.63
2023-06-07T06:34:17.004Z,21.85
2023-06-07T06:36:43.978Z,22.09
2023-06-07T06:39:11.988Z,22.19
2023-06-07T06:41:38.997Z,22.19
2023-06-07T06:44:09.074Z,22.33
2023-06-07T06:46:37.714Z,22.47
2023-06-07T06:49:12.705Z,22.66
2023-06-07T06:51:42.493Z,22.67
2023-06-07T06:54:12.891Z,22.67
2023-06-07T06:56:39.777Z,22.79
2023-06-07T06:59:06.760Z,22.96
2023-06-07T07:01:48.151Z,22.88
2023-06-07T07:04:18.900Z,22.98
2023-06-07T07:06:45.926Z,23.00
2023-06-07T07:09:14.351Z,22.96
2023-06-07T07:11:41.184Z,23.04
2023-06-07T07:14:08.072Z,22.96
2023-06-07T07:16:38.643Z,23.03
2023-06-07T07:19:06.398Z,22.96
2023-06-07T07:21:33.362Z,23.00
2023-06-07T07:24:00.301Z,22.77
2023-06-07T07:26:27.368Z,22.71
2023-06-07T07:28:54.686Z,22.76
2023-06-07T07:31:22.383Z,22.77
2023-06-07T07:33:49.633Z,22.80
2023-06-07T07:36:18.854Z,22.69
2023-06-07T07:38:47.005Z,22.56
2023-06-07T07:41:15.771Z,22.47
2023-06-07T07:43:42.732Z,22.45
2023-06-07T07:46:09.645Z,22.52
2023-06-07T07:48:36.702Z,22.51
2023-06-07T07:51:04.268Z,22.51
2023-06-07T07:53:31.214Z,22.51
2023-06-07T07:55:58.336Z,22.62
2023-06-07T07:58:26.685Z,22.65
2023-06-07T08:00:54.190Z,22.62
2023-06-07T08:03:22.810Z,22.70
2023-06-07T08:05:50.072Z,22.88
2023-06-07T08:08:18.293Z,23.06
2023-06-07T08:10:46.313Z,23.14
2023-06-07T08:13:13.486Z,23.32
2023-06-07T08:15:41.244Z,23.45
2023-06-07T08:18:08.474Z,23.44
2023-06-07T08:20:36.535Z,23.45
2023-06-07T08:23:03.472Z,23.54
2023-06-07T08:25:30.339Z,23.55
2023-06-07T08:27:57.188Z,23.45
2023-06-07T08:30:25.012Z,23.39
2023-06-07T08:32:52.022Z,23.48
2023-06-07T08:35:19.038Z,23.54
2023-06-07T08:37:46.087Z,23.52
2023-06-07T08:40:13.483Z,23.60
2023-06-07T08:42:41.042Z,23.53
2023-06-07T08:45:08.391Z,23.42
2023-06-07T08:47:37.389Z,23.47
2023-06-07T08:50:05.404Z,23.68
2023-06-07T08:52:37.226Z,23.97
2023-06-07T08:55:07.731Z,24.21
2023-06-07T08:57:34.907Z,24.48
2023-06-07T09:00:39.759Z,24.21
2023-06-07T09:03:09.627Z,24.42
2023-06-07T09:05:36.613Z,24.59
2023-06-07T09:08:04.229Z,24.82
2023-06-07T09:10:31.483Z,25.05
2023-06-07T09:12:58.774Z,25.17
2023-06-07T09:15:25.633Z,25.46
2023-06-07T09:17:56.907Z,25.55
2023-06-07T09:20:28.530Z,25.38
2023-06-07T09:23:10.118Z,25.47
2023-06-07T09:25:41.149Z,25.79
2023-06-07T09:28:12.503Z,26.05
2023-06-07T09:31:01.418Z,26.12
2023-06-07T09:33:30.386Z,26.28
2023-06-07T09:36:24.305Z,25.60
2023-06-07T09:38:51.386Z,25.66
2023-06-07T09:41:18.644Z,25.21
2023-06-07T09:43:48.089Z,24.78
2023-06-07T09:46:22.184Z,24.54
2023-06-07T09:48:54.472Z,24.62
2023-06-07T09:51:22.376Z,25.00
2023-06-07T09:54:00.566Z,25.31
2023-06-07T09:56:28.304Z,25.70
2023-06-07T09:59:14.784Z,25.69
2023-06-07T10:01:45.676Z,25.98
2023-06-07T10:04:13.649Z,25.79
2023-06-07T10:06:45.575Z,25.28
2023-06-07T10:09:13.739Z,25.17
2023-06-07T10:11:44.882Z,24.87
2023-06-07T10:14:13.829Z,24.75
2023-06-07T10:16:49.205Z,24.29
2023-06-07T10:19:34.887Z,24.28
2023-06-07T10:22:02.457Z,24.42
2023-06-07T10:24:41.561Z,24.26
2023-06-07T10:27:16.874Z,24.32
2023-06-07T10:29:53.701Z,24.27
2023-06-07T10:32:28.068Z,24.19
2023-06-07T10:34:59.940Z,24.08
2023-06-07T10:37:33.629Z,23.91
2023-06-07T10:40:06.689Z,23.72
2023-06-07T10:42:34.878Z,23.61
2023-06-07T10:45:02.754Z,23.49
2023-06-07T10:47:31.980Z,23.23
2023-06-07T10:49:59.526Z,22.92
2023-06-07T10:52:29.932Z,22.74
2023-06-07T10:54:57.916Z,22.62
2023-06-07T10:57:38.493Z,22.39
2023-06-07T11:00:31.302Z,22.40
2023-06-07T11:03:17.603Z,22.66
2023-06-07T11:05:59.979Z,22.72
2023-06-07T11:08:29.828Z,22.81
2023-06-07T11:11:02.380Z,22.76
2023-06-07T11:13:45.208Z,22.59
2023-06-07T11:16:27.377Z,22.49
2023-06-07T11:19:04.712Z,22.47
2023-06-07T11:21:52.182Z,22.55
2023-06-07T11:24:19.829Z,22.64
2023-06-07T11:26:48.710Z,22.84
2023-06-07T11:29:24.961Z,22.91
2023-06-07T11:32:02.239Z,22.90
2023-06-07T11:34:32.967Z,22.98
2023-06-07T11:37:18.164Z,22.99
2023-06-07T11:39:46.613Z,23.09
2023-06-07T11:42:13.727Z,23.06
2023-06-07T11:44:42.609Z,23.07
2023-06-07T11:47:09.885Z,23.02
2023-06-07T11:49:39.930Z,22.93
2023-06-07T11:52:07.403Z,22.84
2023-06-07T11:54:35.353Z,22.70
2023-06-07T11:57:02.455Z,22.62
2023-06-07T11:59:29.617Z,22.61
2023-06-07T12:01:56.915Z,22.66
2023-06-07T12:04:28.299Z,22.67
2023-06-07T12:06:56.106Z,22.59
2023-06-07T12:09:23.261Z,22.41
2023-06-07T12:11:51.765Z,22.36
2023-06-07T12:14:32.537Z,22.14
2023-06-07T12:17:00.592Z,22.12
2023-06-07T12:19:27.852Z,22.12
2023-06-07T12:22:04.168Z,22.18
2023-06-07T12:24:31.186Z,22.12
2023-06-07T12:26:58.187Z,22.17
2023-06-07T12:29:31.549Z,22.17
2023-06-07T12:32:00.928Z,22.17
2023-06-07T12:34:31.787Z,22.15
2023-06-07T12:36:59.064Z,22.19
2023-06-07T12:39:30.705Z,22.19
2023-06-07T12:41:58.532Z,22.26
2023-06-07T12:44:26.099Z,22.34
2023-06-07T12:46:53.991Z,22.33
2023-06-07T12:49:20.966Z,22.29
2023-06-07T12:51:48.027Z,22.31
2023-06-07T12:54:15.144Z,22.35
2023-06-07T12:56:42.990Z,22.36
2023-06-07T12:59:14.913Z,22.29
2023-06-07T13:01:41.929Z,22.27
2023-06-07T13:04:09.183Z,22.24
2023-06-07T13:06:37.464Z,22.21
2023-06-07T13:09:10.518Z,21.99
2023-06-07T13:11:39.084Z,21.96
2023-06-07T13:14:06.231Z,21.99
2023-06-07T13:16:33.782Z,21.99
2023-06-07T13:19:01.669Z,21.99
2023-06-07T13:21:31.768Z,21.99
2023-06-07T13:23:59.442Z,22.08
2023-06-07T13:26:26.615Z,22.19
2023-06-07T13:28:53.557Z,22.25
2023-06-07T13:31:20.441Z,22.30
2023-06-07T13:33:47.459Z,22.37
2023-06-07T13:36:15.227Z,22.45
2023-06-07T13:38:42.535Z,22.54
2023-06-07T13:41:11.155Z,22.62
2023-06-07T13:46:10.258Z,22.62
2023-06-07T13:48:41.275Z,22.57
2023-06-07T13:51:11.390Z,22.48
2023-06-07T13:53:40.519Z,22.45
2023-06-07T13:56:08.026Z,22.52
2023-06-07T13:58:37.131Z,22.47
2023-06-07T14:01:04.677Z,22.55
2023-06-07T14:03:32.416Z,22.69
2023-06-07T14:05:59.578Z,22.88
2023-06-07T14:08:27.147Z,23.05
2023-06-07T14:10:54.503Z,22.99
2023-06-07T14:13:22.210Z,23.00
2023-06-07T14:15:50.823Z,22.85
2023-06-07T14:18:20.427Z,22.83
2023-06-07T14:20:48.444Z,22.88
2023-06-07T14:23:15.897Z,22.95
2023-06-07T14:25:42.923Z,23.06
2023-06-07T14:28:10.093Z,23.13
2023-06-07T14:30:37.043Z,23.08
2023-06-07T14:33:04.049Z,23.00
2023-06-07T14:35:31.532Z,23.10
2023-06-07T14:37:58.405Z,23.25
2023-06-07T14:40:31.873Z,23.35
2023-06-07T14:42:58.721Z,23.39
2023-06-07T14:45:27.789Z,23.46
2023-06-07T14:48:01.542Z,23.45
2023-06-07T14:50:34.191Z,23.47
2023-06-07T14:53:01.839Z,23.47
2023-06-07T14:55:28.712Z,23.47
2023-06-07T14:58:02.445Z,23.44
2023-06-07T15:00:35.205Z,23.40
2023-06-07T15:03:06.702Z,23.29
2023-06-07T15:05:36.628Z,23.29
2023-06-07T15:08:06.322Z,23.18
2023-06-07T15:10:34.557Z,23.05
2023-06-07T15:13:01.496Z,23.01
2023-06-07T15:15:29.362Z,22.86
2023-06-07T15:17:57.934Z,22.84
2023-06-07T15:20:25.523Z,22.78
2023-06-07T15:22:52.426Z,22.60
2023-06-07T15:25:19.629Z,22.44
2023-06-07T15:27:47.607Z,22.42
2023-06-07T15:30:15.869Z,22.40
2023-06-07T15:32:42.759Z,22.36
2023-06-07T15:35:12.750Z,22.31
2023-06-07T15:37:41.431Z,22.28
2023-06-07T15:40:09.079Z,22.22
2023-06-07T15:42:37.021Z,22.14
2023-06-07T15:45:05.220Z,22.04
2023-06-07T15:47:33.099Z,22.01
2023-06-07T15:50:00.984Z,21.98
2023-06-07T15:52:27.987Z,21.97
2023-06-07T15:54:54.874Z,21.96
2023-06-07T15:57:23.527Z,21.98
2023-06-07T15:59:50.399Z,21.99
2023-06-07T16:02:19.474Z,21.97
2023-06-07T16:04:46.823Z,21.94
2023-06-07T16:07:13.783Z,21.90
2023-06-07T16:09:40.734Z,21.89
2023-06-07T16:12:08.008Z,21.87
2023-06-07T16:14:34.995Z,21.82
2023-06-07T16:17:05.948Z,21.78
2023-06-07T16:19:33.425Z,21.75
2023-06-07T16:22:00.274Z,21.72
2023-06-07T16:24:28.119Z,21.60
2023-06-07T16:26:55.191Z,21.61
2023-06-07T16:29:22.133Z,21.59
2023-06-07T16:31:48.961Z,21.55
2023-06-07T16:34:15.896Z,21.55
2023-06-07T16:36:42.742Z,21.50
2023-06-07T16:39:09.702Z,21.43
2023-06-07T16:41:41.502Z,21.38
2023-06-07T16:44:09.122Z,21.36
2023-06-07T16:46:36.222Z,21.34
2023-06-07T16:49:06.647Z,21.33
2023-06-07T16:51:33.901Z,21.27
2023-06-07T16:54:01.099Z,21.16
2023-06-07T16:56:28.338Z,21.10
2023-06-07T16:58:55.195Z,21.10
2023-06-07T17:01:26.111Z,21.08
2023-06-07T17:03:53.414Z,21.07
2023-06-07T17:06:20.607Z,21.08
2023-06-07T17:08:48.922Z,21.10
2023-06-07T17:11:16.096Z,21.06
2023-06-07T17:13:45.115Z,21.03
2023-06-07T17:16:13.941Z,21.00
2023-06-07T17:18:41.006Z,21.01
2023-06-07T17:21:08.949Z,21.00
2023-06-07T17:23:35.836Z,20.97
2023-06-07T17:26:05.080Z,20.93
2023-06-07T17:28:35.053Z,20.79
2023-06-07T17:31:02.479Z,20.70
2023-06-07T17:33:29.514Z,20.61
2023-06-07T17:35:57.198Z,20.55
2023-06-07T17:38:24.139Z,20.51
2023-06-07T17:40:50.981Z,20.48
2023-06-07T17:43:17.912Z,20.45
2023-06-07T17:45:45.236Z,20.42
2023-06-07T17:48:14.086Z,20.44
2023-06-07T17:50:46.915Z,20.48
2023-06-07T17:53:15.281Z,20.50
2023-06-07T17:55:46.444Z,20.52
2023-06-07T17:58:14.339Z,20.54
2023-06-07T18:00:41.408Z,20.52
2023-06-07T18:03:09.854Z,20.52
2023-06-07T18:05:37.204Z,20.50
2023-06-07T18:08:04.500Z,20.45
2023-06-07T18:10:31.431Z,20.44
2023-06-07T18:12:58.661Z,20.45
2023-06-07T18:15:27.047Z,20.48
2023-06-07T18:17:54.400Z,20.51
2023-06-07T18:20:22.533Z,20.51
2023-06-07T18:22:50.385Z,20.54
2023-06-07T18:25:19.960Z,20.55
2023-06-07T18:27:48.634Z,20.55
2023-06-07T18:30:15.669Z,20.58
2023-06-07T18:32:42.808Z,20.62
2023-06-07T18:35:10.751Z,20.62
2023-06-07T18:37:40.268Z,20.60
2023-06-07T18:40:08.099Z,20.57
2023-06-07T18:42:35.879Z,20.54
2023-06-07T18:45:04.669Z,20.51
2023-06-07T18:47:34.138Z,20.46
2023-06-07T18:50:01.622Z,20.42
2023-06-07T18:52:32.010Z,20.35
2023-06-07T18:54:58.925Z,20.30
2023-06-07T18:57:26.195Z,20.26
2023-06-07T18:59:53.212Z,20.24
2023-06-07T19:02:21.390Z,20.22
2023-06-07T19:04:49.133Z,20.19
2023-06-07T19:07:16.182Z,20.13
2023-06-07T19:09:45.086Z,20.10
2023-06-07T19:12:12.144Z,20.04
2023-06-07T19:14:39.094Z,19.99
2023-06-07T19:17:06.296Z,19.95
2023-06-07T19:19:33.373Z,19.94
2023-06-07T19:22:00.476Z,19.89
2023-06-07T19:24:27.460Z,19.86
2023-06-07T19:26:54.399Z,19.81
2023-06-07T19:29:21.323Z,19.78
2023-06-07T19:31:48.254Z,19.75
2023-06-07T19:34:15.118Z,19.72
2023-06-07T19:36:42.123Z,19.66
2023-06-07T19:39:09.226Z,19.62
2023-06-07T19:41:36.304Z,19.59
2023-06-07T19:44:03.324Z,19.55
2023-06-07T19:46:30.311Z,19.53
2023-06-07T19:48:58.410Z,19.50
2023-06-07T19:51:25.398Z,19.48
2023-06-07T19:53:53.235Z,19.43
2023-06-07T19:56:20.165Z,19.37
2023-06-07T19:58:47.133Z,19.31
2023-06-07T20:01:13.992Z,19.24
2023-06-07T20:03:41.692Z,19.19
2023-06-07T20:06:08.706Z,19.14
2023-06-07T20:08:35.607Z,19.09
2023-06-07T20:11:02.433Z,19.06
2023-06-07T20:13:29.272Z,19.03
2023-06-07T20:15:56.187Z,18.97
2023-06-07T20:18:23.102Z,18.99
2023-06-07T20:20:49.956Z,18.96
2023-06-07T20:23:16.858Z,18.96
2023-06-07T20:25:43.696Z,18.96
2023-06-07T20:28:10.577Z,18.96
2023-06-07T20:30:37.429Z,18.95
2023-06-07T20:33:04.484Z,18.92
2023-06-07T20:35:32.742Z,18.92
2023-06-07T20:37:59.816Z,18.91
2023-06-07T20:40:26.667Z,18.85
2023-06-07T20:42:53.971Z,18.80
2023-06-07T20:45:20.828Z,18.77
2023-06-07T20:47:47.732Z,18.75
2023-06-07T20:50:18.115Z,18.71
2023-06-07T20:52:44.995Z,18.71
2023-06-07T20:55:11.882Z,18.69
2023-06-07T20:57:38.863Z,18.69
2023-06-07T21:00:06.899Z,18.66
2023-06-07T21:02:39.924Z,18.64
2023-06-07T21:05:07.086Z,18.63
2023-06-07T21:07:34.027Z,18.62
2023-06-07T21:10:01.446Z,18.61
2023-06-07T21:12:34.410Z,18.59
2023-06-07T21:15:01.394Z,18.56
2023-06-07T21:17:34.607Z,18.55
2023-06-07T21:20:01.584Z,18.53
2023-06-07T21:22:32.008Z,18.47
2023-06-07T21:24:59.036Z,18.45
2023-06-07T21:27:29.800Z,18.43
2023-06-07T21:29:58.642Z,18.44
2023-06-07T21:32:29.692Z,18.42
2023-06-07T21:34:56.584Z,18.39
2023-06-07T21:37:23.492Z,18.40
2023-06-07T21:39:50.496Z,18.39
2023-06-07T21:42:17.335Z,18.38
2023-06-07T21:44:44.555Z,18.39
2023-06-07T21:47:11.431Z,18.38
2023-06-07T21:49:38.467Z,18.36
2023-06-07T21:52:05.748Z,18.33
2023-06-07T21:54:41.641Z,18.29
2023-06-07T21:57:08.654Z,18.25
2023-06-07T21:59:35.468Z,18.21
2023-06-07T22:02:02.273Z,18.20
2023-06-07T22:04:29.170Z,18.19
2023-06-07T22:06:59.226Z,18.20
2023-06-07T22:09:26.231Z,18.20
2023-06-07T22:11:55.495Z,18.18
2023-06-07T22:14:23.271Z,18.15
2023-06-07T22:16:50.549Z,18.15
2023-06-07T22:19:20.303Z,18.13
2023-06-07T22:21:50.330Z,18.09
2023-06-07T22:24:18.943Z,18.09
2023-06-07T22:26:47.433Z,18.06
2023-06-07T22:29:14.279Z,18.05
2023-06-07T22:31:41.413Z,18.04
2023-06-07T22:34:09.103Z,18.04
2023-06-07T22:36:43.092Z,18.04
2023-06-07T22:39:14.497Z,18.06
2023-06-07T22:41:41.978Z,18.04
2023-06-07T22:44:11.771Z,18.01
2023-06-07T22:46:41.814Z,18.00
2023-06-07T22:49:09.889Z,18.01
2023-06-07T22:51:41.851Z,18.00
2023-06-07T22:54:09.709Z,17.96
2023-06-07T22:56:36.792Z,17.94
2023-06-07T22:59:03.909Z,17.90
2023-06-07T23:01:32.759Z,17.89
2023-06-07T23:04:01.977Z,17.89
2023-06-07T23:06:34.471Z,17.87
2023-06-07T23:09:02.427Z,17.83
2023-06-07T23:11:30.312Z,17.82
2023-06-07T23:14:00.955Z,17.80
2023-06-07T23:16:29.373Z,17.79
2023-06-07T23:18:58.213Z,17.79
2023-06-07T23:21:26.780Z,17.79
2023-06-07T23:23:54.905Z,17.78
2023-06-07T23:26:22.201Z,17.76
2023-06-07T23:28:51.650Z,17.76
2023-06-07T23:31:18.668Z,17.76
2023-06-07T23:33:45.584Z,17.74
2023-06-07T23:36:13.348Z,17.71
2023-06-07T23:38:40.807Z,17.67
2023-06-07T23:41:08.099Z,17.64
2023-06-07T23:43:35.703Z,17.60
2023-06-07T23:46:03.118Z,17.57
2023-06-07T23:48:30.527Z,17.56
2023-06-07T23:50:58.596Z,17.56
2023-06-07T23:53:25.520Z,17.58
2023-06-07T23:55:54.149Z,17.55
2023-06-07T23:58:21.317Z,17.54
